GFRNS EGHJ-EGHJ
Flight info
| Callsign | GFRNS |
|---|---|
| Flight time | 0h 27m |
| Altitude | 1500 |
| Route | VFR AROUND THE ISLE OF WIGHT |
| Aircraft | B06/L-S/C |
Departure
| Time | 2026-04-25 13:45 |
|---|---|
| Airport | Bembridge Airport (EGHJ) |
Arrival
| Time | 2026-04-25 14:12 |
|---|---|
| Airport | Bembridge Airport (EGHJ) |
| Time | Latitude | Longitude | Altitude | Speed | Heading |
|---|---|---|---|---|---|
| 2026-04-25 13:18 | 50.67619 | -1.10664 | 35 ft | 0 kts | 52° |
| 2026-04-25 13:25 | 50.67622 | -1.10662 | 42 ft | 5 kts | 50° |
| 2026-04-25 13:25 | 50.67653 | -1.10642 | 49 ft | 13 kts | 302° |
| 2026-04-25 13:25 | 50.67809 | -1.11091 | 98 ft | 69 kts | 300° |
| 2026-04-25 13:26 | 50.68141 | -1.11852 | 137 ft | 92 kts | 308° |
| 2026-04-25 13:26 | 50.68495 | -1.12669 | 353 ft | 85 kts | 289° |
| 2026-04-25 13:26 | 50.68609 | -1.13601 | 391 ft | 88 kts | 283° |
| 2026-04-25 13:26 | 50.68959 | -1.14312 | 429 ft | 71 kts | 301° |
| 2026-04-25 13:27 | 50.68797 | -1.14795 | 432 ft | 61 kts | 176° |
| 2026-04-25 13:27 | 50.68611 | -1.14312 | 332 ft | 62 kts | 65° |
| 2026-04-25 13:27 | 50.68754 | -1.13758 | 301 ft | 50 kts | 110° |
| 2026-04-25 13:27 | 50.68409 | -1.13606 | 255 ft | 60 kts | 198° |
| 2026-04-25 13:28 | 50.68277 | -1.14118 | 262 ft | 54 kts | 297° |
| 2026-04-25 13:28 | 50.68484 | -1.14315 | 224 ft | 55 kts | 354° |
| 2026-04-25 13:28 | 50.68629 | -1.14361 | 215 ft | 57 kts | 353° |
| 2026-04-25 13:28 | 50.68822 | -1.14415 | 190 ft | 61 kts | 356° |
| 2026-04-25 13:29 | 50.69239 | -1.14385 | 286 ft | 59 kts | 30° |
| 2026-04-25 13:29 | 50.69368 | -1.13859 | 370 ft | 56 kts | 114° |
| 2026-04-25 13:29 | 50.68959 | -1.13572 | 343 ft | 75 kts | 167° |
| 2026-04-25 13:30 | 50.68146 | -1.12852 | 446 ft | 76 kts | 79° |
| 2026-04-25 13:30 | 50.68222 | -1.12092 | 555 ft | 68 kts | 126° |
| 2026-04-25 13:30 | 50.67737 | -1.12310 | 449 ft | 93 kts | 220° |
| 2026-04-25 13:31 | 50.66892 | -1.13767 | 430 ft | 102 kts | 238° |
| 2026-04-25 13:31 | 50.66663 | -1.14835 | 358 ft | 103 kts | 252° |
| 2026-04-25 13:31 | 50.66501 | -1.15930 | 324 ft | 103 kts | 255° |
| 2026-04-25 13:31 | 50.66294 | -1.16956 | 273 ft | 92 kts | 231° |
| 2026-04-25 13:32 | 50.65873 | -1.17463 | 211 ft | 63 kts | 204° |
| 2026-04-25 13:32 | 50.65514 | -1.17784 | 198 ft | 59 kts | 212° |
| 2026-04-25 13:32 | 50.65570 | -1.18192 | 225 ft | 62 kts | 357° |
| 2026-04-25 13:32 | 50.65801 | -1.18519 | 227 ft | 49 kts | 211° |
| 2026-04-25 13:33 | 50.65569 | -1.18336 | 139 ft | 23 kts | 123° |
| 2026-04-25 13:33 | 50.65497 | -1.18223 | 117 ft | 11 kts | 113° |
| 2026-04-25 13:33 | 50.65498 | -1.18196 | 82 ft | 1 kts | 146° |
| 2026-04-25 13:33 | 50.65492 | -1.18189 | 62 ft | 1 kts | 111° |
| 2026-04-25 13:34 | 50.65494 | -1.18191 | 46 ft | 0 kts | 105° |
| 2026-04-25 13:34 | 50.65493 | -1.18191 | 44 ft | 0 kts | 103° |
| 2026-04-25 13:37 | 50.65515 | -1.18097 | 55 ft | 36 kts | 54° |
| 2026-04-25 13:37 | 50.65796 | -1.17711 | 212 ft | 50 kts | 19° |
| 2026-04-25 13:37 | 50.65713 | -1.18122 | 88 ft | 56 kts | 177° |
| 2026-04-25 13:37 | 50.65459 | -1.18097 | 62 ft | 17 kts | 220° |
| 2026-04-25 13:38 | 50.65476 | -1.18179 | 49 ft | 9 kts | 326° |
| 2026-04-25 13:38 | 50.65486 | -1.18188 | 48 ft | 0 kts | 115° |
| 2026-04-25 13:39 | 50.65485 | -1.18187 | 51 ft | 2 kts | 111° |
| 2026-04-25 13:39 | 50.65595 | -1.17962 | 63 ft | 58 kts | 49° |
| 2026-04-25 13:39 | 50.65813 | -1.18193 | 273 ft | 72 kts | 254° |
| 2026-04-25 13:40 | 50.65635 | -1.19057 | 392 ft | 92 kts | 253° |
| 2026-04-25 13:40 | 50.65484 | -1.20088 | 491 ft | 102 kts | 258° |
| 2026-04-25 13:40 | 50.65363 | -1.21217 | 543 ft | 106 kts | 258° |
| 2026-04-25 13:40 | 50.65246 | -1.22376 | 559 ft | 108 kts | 259° |
| 2026-04-25 13:41 | 50.65359 | -1.23493 | 556 ft | 103 kts | 311° |
| 2026-04-25 13:41 | 50.65936 | -1.23745 | 448 ft | 81 kts | 30° |
| 2026-04-25 13:41 | 50.66083 | -1.23036 | 430 ft | 72 kts | 116° |
| 2026-04-25 13:41 | 50.65786 | -1.22602 | 287 ft | 43 kts | 145° |
| 2026-04-25 13:42 | 50.65604 | -1.22437 | 157 ft | 21 kts | 174° |
| 2026-04-25 13:42 | 50.65543 | -1.22469 | 97 ft | 2 kts | 259° |
| 2026-04-25 13:42 | 50.65545 | -1.22475 | 89 ft | 0 kts | 252° |
| 2026-04-25 13:43 | 50.65544 | -1.22473 | 91 ft | 0 kts | 253° |
| 2026-04-25 13:43 | 50.65545 | -1.22479 | 145 ft | 8 kts | 253° |
| 2026-04-25 13:43 | 50.65524 | -1.22867 | 198 ft | 53 kts | 263° |
| 2026-04-25 13:43 | 50.65520 | -1.23537 | 291 ft | 72 kts | 270° |
| 2026-04-25 13:44 | 50.65534 | -1.24405 | 392 ft | 86 kts | 271° |
| 2026-04-25 13:44 | 50.65556 | -1.25406 | 473 ft | 94 kts | 269° |
| 2026-04-25 13:44 | 50.65557 | -1.26453 | 558 ft | 99 kts | 269° |
| 2026-04-25 13:44 | 50.65415 | -1.27537 | 621 ft | 104 kts | 253° |
| 2026-04-25 13:45 | 50.65250 | -1.28631 | 707 ft | 103 kts | 255° |
| 2026-04-25 13:45 | 50.65125 | -1.29744 | 738 ft | 104 kts | 259° |
| 2026-04-25 13:45 | 50.65023 | -1.30857 | 794 ft | 100 kts | 260° |
| 2026-04-25 13:45 | 50.64895 | -1.31896 | 851 ft | 97 kts | 251° |
| 2026-04-25 13:46 | 50.64687 | -1.32929 | 908 ft | 100 kts | 247° |
| 2026-04-25 13:46 | 50.64500 | -1.33986 | 855 ft | 109 kts | 259° |
| 2026-04-25 13:46 | 50.64492 | -1.35215 | 746 ft | 112 kts | 266° |
| 2026-04-25 13:46 | 50.64447 | -1.36424 | 762 ft | 107 kts | 261° |
| 2026-04-25 13:47 | 50.64380 | -1.37590 | 826 ft | 107 kts | 264° |
| 2026-04-25 13:47 | 50.64333 | -1.38779 | 832 ft | 111 kts | 263° |
| 2026-04-25 13:47 | 50.64281 | -1.40021 | 819 ft | 114 kts | 262° |
| 2026-04-25 13:47 | 50.64300 | -1.41257 | 813 ft | 114 kts | 281° |
| 2026-04-25 13:48 | 50.64571 | -1.42455 | 741 ft | 119 kts | 292° |
| 2026-04-25 13:48 | 50.64909 | -1.43600 | 806 ft | 113 kts | 295° |
| 2026-04-25 13:48 | 50.65273 | -1.44685 | 850 ft | 113 kts | 298° |
| 2026-04-25 13:48 | 50.65676 | -1.45761 | 857 ft | 115 kts | 301° |
| 2026-04-25 13:49 | 50.66160 | -1.46756 | 827 ft | 118 kts | 318° |
| 2026-04-25 13:49 | 50.66748 | -1.47603 | 856 ft | 113 kts | 319° |
| 2026-04-25 13:49 | 50.67352 | -1.48393 | 906 ft | 112 kts | 313° |
| 2026-04-25 13:49 | 50.67764 | -1.49393 | 976 ft | 109 kts | 293° |
| 2026-04-25 13:50 | 50.67909 | -1.50592 | 902 ft | 115 kts | 270° |
| 2026-04-25 13:50 | 50.67864 | -1.51840 | 860 ft | 111 kts | 260° |
| 2026-04-25 13:50 | 50.67736 | -1.52960 | 815 ft | 100 kts | 254° |
| 2026-04-25 13:50 | 50.67663 | -1.54069 | 671 ft | 107 kts | 271° |
| 2026-04-25 13:51 | 50.67831 | -1.54795 | 571 ft | 106 kts | 309° |
| 2026-04-25 13:51 | 50.68246 | -1.55158 | 561 ft | 91 kts | 351° |
| 2026-04-25 13:51 | 50.68581 | -1.54680 | 532 ft | 71 kts | 105° |
| 2026-04-25 13:52 | 50.68209 | -1.54398 | 485 ft | 62 kts | 200° |
| 2026-04-25 13:52 | 50.67928 | -1.55014 | 420 ft | 84 kts | 243° |
| 2026-04-25 13:52 | 50.67752 | -1.55933 | 377 ft | 87 kts | 248° |
| 2026-04-25 13:52 | 50.67568 | -1.56785 | 412 ft | 81 kts | 240° |
| 2026-04-25 13:53 | 50.67267 | -1.57562 | 385 ft | 86 kts | 228° |
| 2026-04-25 13:53 | 50.67139 | -1.57814 | 368 ft | 87 kts | 227° |
| 2026-04-25 13:53 | 50.66935 | -1.58207 | 271 ft | 94 kts | 227° |
| 2026-04-25 13:53 | 50.66515 | -1.58908 | 261 ft | 78 kts | 201° |
| 2026-04-25 13:54 | 50.66017 | -1.58840 | 207 ft | 71 kts | 185° |
| 2026-04-25 13:54 | 50.65851 | -1.59437 | 203 ft | 70 kts | 291° |
| 2026-04-25 13:54 | 50.66277 | -1.59788 | 137 ft | 70 kts | 358° |
| 2026-04-25 13:54 | 50.66495 | -1.59481 | 136 ft | 36 kts | 131° |
| 2026-04-25 13:55 | 50.66335 | -1.59287 | 138 ft | 22 kts | 143° |
| 2026-04-25 13:55 | 50.66256 | -1.59216 | 114 ft | 7 kts | 145° |
| 2026-04-25 13:55 | 50.66229 | -1.59194 | 101 ft | 2 kts | 151° |
| 2026-04-25 13:55 | 50.66225 | -1.59192 | 96 ft | 0 kts | 154° |
| 2026-04-25 13:56 | 50.66224 | -1.59192 | 94 ft | 0 kts | 151° |
| 2026-04-25 13:57 | 50.66160 | -1.59140 | 63 ft | 43 kts | 146° |
| 2026-04-25 13:57 | 50.65976 | -1.58882 | 140 ft | 58 kts | 133° |
| 2026-04-25 13:57 | 50.65809 | -1.57972 | 430 ft | 65 kts | 102° |
| 2026-04-25 13:57 | 50.65618 | -1.57849 | 719 ft | 66 kts | 260° |
| 2026-04-25 13:58 | 50.66008 | -1.57902 | 749 ft | 82 kts | 58° |
| 2026-04-25 13:58 | 50.66409 | -1.57399 | 804 ft | 85 kts | 4° |
| 2026-04-25 13:58 | 50.66541 | -1.56790 | 730 ft | 73 kts | 147° |
| 2026-04-25 13:58 | 50.66209 | -1.57236 | 682 ft | 84 kts | 258° |
| 2026-04-25 13:59 | 50.66229 | -1.57965 | 843 ft | 55 kts | 332° |
| 2026-04-25 13:59 | 50.66526 | -1.57606 | 666 ft | 68 kts | 49° |
| 2026-04-25 13:59 | 50.66937 | -1.57195 | 597 ft | 69 kts | 37° |
| 2026-04-25 13:59 | 50.67206 | -1.56723 | 627 ft | 50 kts | 60° |
| 2026-04-25 14:00 | 50.67422 | -1.56159 | 586 ft | 65 kts | 61° |
| 2026-04-25 14:00 | 50.67658 | -1.55513 | 552 ft | 74 kts | 62° |
| 2026-04-25 14:00 | 50.67952 | -1.54801 | 522 ft | 77 kts | 61° |
| 2026-04-25 14:00 | 50.68152 | -1.54007 | 493 ft | 75 kts | 92° |
| 2026-04-25 14:01 | 50.67823 | -1.53593 | 531 ft | 70 kts | 191° |
| 2026-04-25 14:01 | 50.67744 | -1.54273 | 529 ft | 85 kts | 316° |
| 2026-04-25 14:01 | 50.68327 | -1.54199 | 451 ft | 94 kts | 28° |
| 2026-04-25 14:01 | 50.68903 | -1.53701 | 463 ft | 94 kts | 33° |
| 2026-04-25 14:02 | 50.69426 | -1.53083 | 482 ft | 92 kts | 50° |
| 2026-04-25 14:02 | 50.69893 | -1.52360 | 484 ft | 97 kts | 32° |
| 2026-04-25 14:02 | 50.70495 | -1.51851 | 514 ft | 100 kts | 39° |
| 2026-04-25 14:02 | 50.70778 | -1.51325 | 529 ft | 90 kts | 65° |
| 2026-04-25 14:03 | 50.70880 | -1.50017 | 479 ft | 97 kts | 94° |
| 2026-04-25 14:03 | 50.70798 | -1.49041 | 473 ft | 76 kts | 124° |
| 2026-04-25 14:03 | 50.70401 | -1.48883 | 352 ft | 63 kts | 203° |
| 2026-04-25 14:03 | 50.70140 | -1.49490 | 246 ft | 75 kts | 250° |
| 2026-04-25 14:04 | 50.70165 | -1.50334 | 206 ft | 78 kts | 287° |
| 2026-04-25 14:04 | 50.70496 | -1.50939 | 252 ft | 65 kts | 345° |
| 2026-04-25 14:04 | 50.70690 | -1.50564 | 179 ft | 46 kts | 104° |
| 2026-04-25 14:04 | 50.70636 | -1.49939 | 197 ft | 72 kts | 98° |
| 2026-04-25 14:05 | 50.70566 | -1.49095 | 256 ft | 82 kts | 98° |
| 2026-04-25 14:05 | 50.70501 | -1.48195 | 383 ft | 83 kts | 99° |
| 2026-04-25 14:05 | 50.70436 | -1.47241 | 453 ft | 92 kts | 98° |
| 2026-04-25 14:05 | 50.70334 | -1.46233 | 503 ft | 92 kts | 102° |
| 2026-04-25 14:06 | 50.70198 | -1.45228 | 502 ft | 94 kts | 101° |
| 2026-04-25 14:06 | 50.70062 | -1.44261 | 621 ft | 90 kts | 103° |
| 2026-04-25 14:06 | 50.69923 | -1.43253 | 582 ft | 95 kts | 101° |
| 2026-04-25 14:06 | 50.69808 | -1.42200 | 548 ft | 100 kts | 97° |
| 2026-04-25 14:07 | 50.69725 | -1.41105 | 529 ft | 102 kts | 98° |
| 2026-04-25 14:07 | 50.69657 | -1.39973 | 518 ft | 104 kts | 93° |
| 2026-04-25 14:07 | 50.69650 | -1.38826 | 498 ft | 106 kts | 93° |
| 2026-04-25 14:07 | 50.69585 | -1.37698 | 506 ft | 103 kts | 93° |
| 2026-04-25 14:08 | 50.69614 | -1.36585 | 504 ft | 102 kts | 86° |
| 2026-04-25 14:08 | 50.69709 | -1.35475 | 573 ft | 104 kts | 74° |
| 2026-04-25 14:08 | 50.69955 | -1.34370 | 573 ft | 108 kts | 70° |
| 2026-04-25 14:08 | 50.70233 | -1.33314 | 668 ft | 99 kts | 66° |
| 2026-04-25 14:09 | 50.70515 | -1.32339 | 728 ft | 100 kts | 68° |
| 2026-04-25 14:09 | 50.70802 | -1.31299 | 702 ft | 108 kts | 68° |
| 2026-04-25 14:09 | 50.71100 | -1.30138 | 518 ft | 123 kts | 70° |
| 2026-04-25 14:09 | 50.71315 | -1.29336 | 465 ft | 113 kts | 63° |
| 2026-04-25 14:10 | 50.72141 | -1.28730 | 395 ft | 100 kts | 359° |
| 2026-04-25 14:10 | 50.72843 | -1.28848 | 320 ft | 99 kts | 352° |
| 2026-04-25 14:10 | 50.73522 | -1.28744 | 371 ft | 99 kts | 11° |
| 2026-04-25 14:10 | 50.74166 | -1.28488 | 462 ft | 93 kts | 22° |
| 2026-04-25 14:11 | 50.74815 | -1.28697 | 452 ft | 103 kts | 333° |
| 2026-04-25 14:11 | 50.75488 | -1.29184 | 435 ft | 110 kts | 344° |
| 2026-04-25 14:11 | 50.76204 | -1.29573 | 417 ft | 113 kts | 329° |
| 2026-04-25 14:11 | 50.76813 | -1.30299 | 394 ft | 98 kts | 307° |
| 2026-04-25 14:12 | 50.76733 | -1.30831 | 317 ft | 52 kts | 153° |
| 2026-04-25 14:12 | 50.76528 | -1.30483 | 255 ft | 34 kts | 122° |
| 2026-04-25 14:12 | 50.76400 | -1.30285 | 170 ft | 20 kts | 127° |
| 2026-04-25 14:12 | 50.76346 | -1.30195 | 101 ft | 1 kts | 126° |
| 2026-04-25 14:13 | 50.76346 | -1.30192 | 100 ft | 1 kts | 128° |
| 2026-04-25 14:13 | 50.76339 | -1.30169 | 140 ft | 14 kts | 85° |
| 2026-04-25 14:14 | 50.76367 | -1.29714 | 190 ft | 59 kts | 90° |
| 2026-04-25 14:14 | 50.76283 | -1.29496 | 220 ft | 66 kts | 285° |
| 2026-04-25 14:14 | 50.76442 | -1.30299 | 309 ft | 79 kts | 295° |
| 2026-04-25 14:14 | 50.76811 | -1.30868 | 485 ft | 69 kts | 270° |
| 2026-04-25 14:15 | 50.76580 | -1.30934 | 329 ft | 48 kts | 109° |
| 2026-04-25 14:15 | 50.76557 | -1.30760 | 294 ft | 47 kts | 103° |
| 2026-04-25 14:15 | 50.76384 | -1.30266 | 170 ft | 20 kts | 125° |
| 2026-04-25 14:15 | 50.76349 | -1.30199 | 104 ft | 1 kts | 135° |
| 2026-04-25 14:16 | 50.76349 | -1.30197 | 99 ft | 0 kts | 141° |
| 2026-04-25 14:16 | 50.76346 | -1.30195 | 99 ft | 0 kts | 122° |
| 2026-04-25 14:16 | 50.76346 | -1.30192 | 100 ft | 1 kts | 128° |
| 2026-04-25 14:16 | 50.76339 | -1.30169 | 140 ft | 14 kts | 85° |
| 2026-04-25 14:17 | 50.76367 | -1.29713 | 190 ft | 59 kts | 90° |
| 2026-04-25 14:17 | 50.76283 | -1.29497 | 220 ft | 66 kts | 285° |
| 2026-04-25 14:17 | 50.76442 | -1.30299 | 309 ft | 79 kts | 295° |
| 2026-04-25 14:17 | 50.76810 | -1.30858 | 484 ft | 69 kts | 272° |
| 2026-04-25 14:18 | 50.76582 | -1.30941 | 331 ft | 48 kts | 110° |
| 2026-04-25 14:18 | 50.76504 | -1.30495 | 251 ft | 31 kts | 123° |
| 2026-04-25 14:18 | 50.76385 | -1.30268 | 172 ft | 20 kts | 125° |
| 2026-04-25 14:18 | 50.76353 | -1.30206 | 111 ft | 4 kts | 131° |
| 2026-04-25 14:19 | 50.76349 | -1.30197 | 99 ft | 0 kts | 141° |
| 2026-04-25 14:32 | 50.76349 | -1.30196 | 100 ft | 0 kts | 143° |
| 2026-04-25 14:33 | 50.76348 | -1.30190 | 104 ft | 1 kts | 146° |
| 2026-04-25 14:33 | 50.76346 | -1.30188 | 122 ft | 1 kts | 149° |
| 2026-04-25 14:33 | 50.76447 | -1.30004 | 157 ft | 60 kts | 42° |
| 2026-04-25 14:33 | 50.76828 | -1.29471 | 213 ft | 80 kts | 55° |
| 2026-04-25 14:34 | 50.76955 | -1.28621 | 427 ft | 82 kts | 102° |
| 2026-04-25 14:34 | 50.76672 | -1.27846 | 574 ft | 85 kts | 137° |
| 2026-04-25 14:34 | 50.76140 | -1.27350 | 642 ft | 93 kts | 156° |
| 2026-04-25 14:34 | 50.75530 | -1.26927 | 760 ft | 98 kts | 158° |
| 2026-04-25 14:35 | 50.74878 | -1.26512 | 745 ft | 102 kts | 157° |
| 2026-04-25 14:35 | 50.74223 | -1.26052 | 725 ft | 103 kts | 148° |
| 2026-04-25 14:35 | 50.73724 | -1.25259 | 724 ft | 103 kts | 127° |
| 2026-04-25 14:35 | 50.73320 | -1.24319 | 686 ft | 104 kts | 124° |
| 2026-04-25 14:36 | 50.72941 | -1.23354 | 659 ft | 103 kts | 123° |
| 2026-04-25 14:36 | 50.72627 | -1.22373 | 714 ft | 102 kts | 109° |
| 2026-04-25 14:36 | 50.72496 | -1.21283 | 799 ft | 100 kts | 99° |
| 2026-04-25 14:36 | 50.72342 | -1.20261 | 884 ft | 93 kts | 120° |
| 2026-04-25 14:37 | 50.71904 | -1.19454 | 814 ft | 104 kts | 136° |
| 2026-04-25 14:37 | 50.71244 | -1.18986 | 751 ft | 106 kts | 172° |
| 2026-04-25 14:37 | 50.70529 | -1.18922 | 814 ft | 103 kts | 169° |
| 2026-04-25 14:37 | 50.69931 | -1.18259 | 731 ft | 108 kts | 128° |
| 2026-04-25 14:38 | 50.69572 | -1.17211 | 717 ft | 111 kts | 114° |
| 2026-04-25 14:38 | 50.69274 | -1.16103 | 727 ft | 110 kts | 114° |
| 2026-04-25 14:38 | 50.68983 | -1.14951 | 593 ft | 115 kts | 112° |
| 2026-04-25 14:38 | 50.68728 | -1.13771 | 570 ft | 115 kts | 108° |
| 2026-04-25 14:39 | 50.68400 | -1.12631 | 391 ft | 110 kts | 117° |
| 2026-04-25 14:39 | 50.68044 | -1.11692 | 196 ft | 82 kts | 121° |
| 2026-04-25 14:39 | 50.67818 | -1.11074 | 83 ft | 51 kts | 120° |
| 2026-04-25 14:39 | 50.67697 | -1.10755 | 49 ft | 15 kts | 123° |
| 2026-04-25 14:40 | 50.67647 | -1.10682 | 40 ft | 7 kts | 157° |
| 2026-04-25 14:40 | 50.67623 | -1.10672 | 35 ft | 2 kts | 140° |
| 2026-04-25 14:40 | 50.67617 | -1.10662 | 33 ft | 0 kts | 126° |